sensor_id;sensor_type;location;lat;lon;timestamp;P1;durP1;ratioP1;P2;durP2;ratioP2
60306;SDS011;46155;52.364;6.580;2023-05-10T03:03:14;41.57;;;37.90;;
60306;SDS011;46155;52.364;6.580;2023-05-10T03:05:40;44.40;;;40.90;;
60306;SDS011;46155;52.364;6.580;2023-05-10T03:08:05;45.17;;;41.53;;
60306;SDS011;46155;52.364;6.580;2023-05-10T03:10:31;43.30;;;39.87;;
60306;SDS011;46155;52.364;6.580;2023-05-10T03:13:05;43.00;;;39.47;;
60306;SDS011;46155;52.364;6.580;2023-05-10T03:15:49;43.73;;;39.93;;
60306;SDS011;46155;52.364;6.580;2023-05-10T03:18:23;44.07;;;40.30;;
60306;SDS011;46155;52.364;6.580;2023-05-10T03:20:57;42.03;;;38.57;;
60306;SDS011;46155;52.364;6.580;2023-05-10T03:23:27;44.87;;;40.77;;
60306;SDS011;46155;52.364;6.580;2023-05-10T03:25:58;44.23;;;40.57;;
60306;SDS011;46155;52.364;6.580;2023-05-10T03:28:25;46.20;;;42.07;;
60306;SDS011;46155;52.364;6.580;2023-05-10T03:30:52;44.17;;;40.53;;
60306;SDS011;46155;52.364;6.580;2023-05-10T03:33:18;45.27;;;41.23;;
60306;SDS011;46155;52.364;6.580;2023-05-10T03:35:43;46.50;;;42.50;;
60306;SDS011;46155;52.364;6.580;2023-05-10T03:38:10;47.00;;;43.03;;
60306;SDS011;46155;52.364;6.580;2023-05-10T03:40:36;49.83;;;45.23;;
60306;SDS011;46155;52.364;6.580;2023-05-10T03:43:02;47.83;;;43.67;;
60306;SDS011;46155;52.364;6.580;2023-05-10T03:45:27;48.93;;;44.73;;
60306;SDS011;46155;52.364;6.580;2023-05-10T03:47:53;49.30;;;44.40;;
60306;SDS011;46155;52.364;6.580;2023-05-10T03:50:19;50.57;;;45.93;;
60306;SDS011;46155;52.364;6.580;2023-05-10T03:52:44;50.07;;;45.30;;
60306;SDS011;46155;52.364;6.580;2023-05-10T03:55:10;50.00;;;45.20;;
60306;SDS011;46155;52.364;6.580;2023-05-10T03:57:35;50.63;;;45.60;;
60306;SDS011;46155;52.364;6.580;2023-05-10T04:00:01;51.70;;;46.77;;
60306;SDS011;46155;52.364;6.580;2023-05-10T04:02:27;48.97;;;44.13;;
60306;SDS011;46155;52.364;6.580;2023-05-10T04:04:53;48.70;;;43.23;;
60306;SDS011;46155;52.364;6.580;2023-05-10T04:07:18;47.50;;;42.67;;
60306;SDS011;46155;52.364;6.580;2023-05-10T04:09:43;48.27;;;43.00;;
60306;SDS011;46155;52.364;6.580;2023-05-10T04:12:08;49.00;;;44.10;;
60306;SDS011;46155;52.364;6.580;2023-05-10T04:14:34;47.70;;;43.00;;
60306;SDS011;46155;52.364;6.580;2023-05-10T04:17:00;51.37;;;45.83;;
60306;SDS011;46155;52.364;6.580;2023-05-10T04:19:28;50.50;;;43.77;;
60306;SDS011;46155;52.364;6.580;2023-05-10T04:21:57;49.13;;;44.03;;
60306;SDS011;46155;52.364;6.580;2023-05-10T04:24:22;49.77;;;44.33;;
60306;SDS011;46155;52.364;6.580;2023-05-10T04:26:48;49.93;;;44.33;;
60306;SDS011;46155;52.364;6.580;2023-05-10T04:29:13;48.60;;;42.73;;
60306;SDS011;46155;52.364;6.580;2023-05-10T04:31:38;50.50;;;44.63;;
60306;SDS011;46155;52.364;6.580;2023-05-10T04:34:04;47.87;;;42.73;;
60306;SDS011;46155;52.364;6.580;2023-05-10T04:36:29;49.17;;;43.97;;
60306;SDS011;46155;52.364;6.580;2023-05-10T04:38:54;51.13;;;43.20;;
60306;SDS011;46155;52.364;6.580;2023-05-10T04:41:20;54.37;;;45.13;;
60306;SDS011;46155;52.364;6.580;2023-05-10T04:43:45;57.07;;;44.63;;
60306;SDS011;46155;52.364;6.580;2023-05-10T04:46:11;56.30;;;43.20;;
60306;SDS011;46155;52.364;6.580;2023-05-10T04:48:36;54.50;;;43.83;;
60306;SDS011;46155;52.364;6.580;2023-05-10T04:51:02;55.80;;;41.23;;
60306;SDS011;46155;52.364;6.580;2023-05-10T04:53:28;59.30;;;44.23;;
60306;SDS011;46155;52.364;6.580;2023-05-10T04:55:54;53.63;;;42.70;;
60306;SDS011;46155;52.364;6.580;2023-05-10T04:58:19;58.60;;;43.57;;
60306;SDS011;46155;52.364;6.580;2023-05-10T05:00:45;59.27;;;45.10;;
60306;SDS011;46155;52.364;6.580;2023-05-10T05:03:10;67.23;;;46.70;;
60306;SDS011;46155;52.364;6.580;2023-05-10T05:05:35;66.67;;;45.67;;
60306;SDS011;46155;52.364;6.580;2023-05-10T05:08:01;66.07;;;45.20;;
60306;SDS011;46155;52.364;6.580;2023-05-10T05:10:26;66.53;;;44.17;;
60306;SDS011;46155;52.364;6.580;2023-05-10T05:12:51;57.20;;;43.27;;
60306;SDS011;46155;52.364;6.580;2023-05-10T05:15:16;67.33;;;43.40;;
60306;SDS011;46155;52.364;6.580;2023-05-10T05:17:42;70.33;;;42.40;;
60306;SDS011;46155;52.364;6.580;2023-05-10T05:20:08;77.10;;;43.93;;
60306;SDS011;46155;52.364;6.580;2023-05-10T05:22:35;73.03;;;42.60;;
60306;SDS011;46155;52.364;6.580;2023-05-10T05:25:01;95.07;;;44.90;;
60306;SDS011;46155;52.364;6.580;2023-05-10T05:27:28;76.17;;;44.57;;
60306;SDS011;46155;52.364;6.580;2023-05-10T05:29:54;78.63;;;46.90;;
60306;SDS011;46155;52.364;6.580;2023-05-10T05:32:23;75.27;;;45.20;;
60306;SDS011;46155;52.364;6.580;2023-05-10T05:34:48;77.43;;;44.77;;
60306;SDS011;46155;52.364;6.580;2023-05-10T05:37:14;81.07;;;47.10;;
60306;SDS011;46155;52.364;6.580;2023-05-10T05:39:41;83.70;;;45.93;;
60306;SDS011;46155;52.364;6.580;2023-05-10T05:42:08;81.60;;;47.77;;
60306;SDS011;46155;52.364;6.580;2023-05-10T05:44:37;89.37;;;47.83;;
60306;SDS011;46155;52.364;6.580;2023-05-10T05:47:03;82.83;;;48.33;;
60306;SDS011;46155;52.364;6.580;2023-05-10T05:49:29;73.70;;;49.57;;
60306;SDS011;46155;52.364;6.580;2023-05-10T05:51:58;82.13;;;47.33;;
60306;SDS011;46155;52.364;6.580;2023-05-10T05:54:23;101.13;;;49.97;;
60306;SDS011;46155;52.364;6.580;2023-05-10T05:56:49;76.60;;;47.60;;
60306;SDS011;46155;52.364;6.580;2023-05-10T05:59:14;75.00;;;48.27;;
60306;SDS011;46155;52.364;6.580;2023-05-10T06:01:39;85.87;;;47.20;;
60306;SDS011;46155;52.364;6.580;2023-05-10T06:04:05;77.87;;;45.40;;
60306;SDS011;46155;52.364;6.580;2023-05-10T06:06:30;83.40;;;49.97;;
60306;SDS011;46155;52.364;6.580;2023-05-10T06:08:57;81.20;;;48.83;;
60306;SDS011;46155;52.364;6.580;2023-05-10T06:11:22;80.70;;;48.90;;
60306;SDS011;46155;52.364;6.580;2023-05-10T06:13:47;68.07;;;44.63;;
60306;SDS011;46155;52.364;6.580;2023-05-10T06:16:13;82.23;;;48.10;;
60306;SDS011;46155;52.364;6.580;2023-05-10T06:18:38;77.30;;;46.37;;
60306;SDS011;46155;52.364;6.580;2023-05-10T06:21:04;79.83;;;49.07;;
60306;SDS011;46155;52.364;6.580;2023-05-10T06:23:29;76.97;;;46.50;;
60306;SDS011;46155;52.364;6.580;2023-05-10T06:25:54;73.83;;;46.90;;
60306;SDS011;46155;52.364;6.580;2023-05-10T06:28:20;91.13;;;50.93;;
60306;SDS011;46155;52.364;6.580;2023-05-10T06:30:45;91.70;;;48.23;;
60306;SDS011;46155;52.364;6.580;2023-05-10T06:33:11;84.03;;;50.87;;
60306;SDS011;46155;52.364;6.580;2023-05-10T06:35:36;75.13;;;46.63;;
60306;SDS011;46155;52.364;6.580;2023-05-10T06:38:02;77.93;;;48.70;;
60306;SDS011;46155;52.364;6.580;2023-05-10T06:40:27;74.27;;;45.97;;
60306;SDS011;46155;52.364;6.580;2023-05-10T06:42:52;85.40;;;48.73;;
60306;SDS011;46155;52.364;6.580;2023-05-10T06:45:17;69.73;;;44.93;;
60306;SDS011;46155;52.364;6.580;2023-05-10T06:47:43;75.57;;;47.10;;
60306;SDS011;46155;52.364;6.580;2023-05-10T06:50:08;76.07;;;46.30;;
60306;SDS011;46155;52.364;6.580;2023-05-10T06:52:34;72.00;;;46.47;;
60306;SDS011;46155;52.364;6.580;2023-05-10T06:55:00;70.93;;;46.03;;
60306;SDS011;46155;52.364;6.580;2023-05-10T06:57:25;73.63;;;45.83;;
60306;SDS011;46155;52.364;6.580;2023-05-10T06:59:51;69.67;;;44.40;;
60306;SDS011;46155;52.364;6.580;2023-05-10T07:02:17;63.97;;;41.70;;
60306;SDS011;46155;52.364;6.580;2023-05-10T07:04:42;69.13;;;44.97;;
60306;SDS011;46155;52.364;6.580;2023-05-10T07:07:08;70.40;;;47.93;;
60306;SDS011;46155;52.364;6.580;2023-05-10T07:09:33;70.80;;;44.10;;
60306;SDS011;46155;52.364;6.580;2023-05-10T07:11:59;69.03;;;43.30;;
60306;SDS011;46155;52.364;6.580;2023-05-10T07:14:24;65.97;;;44.97;;
60306;SDS011;46155;52.364;6.580;2023-05-10T07:16:49;71.20;;;45.10;;
60306;SDS011;46155;52.364;6.580;2023-05-10T07:19:16;73.00;;;43.53;;
60306;SDS011;46155;52.364;6.580;2023-05-10T07:21:41;61.40;;;40.87;;
60306;SDS011;46155;52.364;6.580;2023-05-10T07:24:08;59.33;;;39.20;;
60306;SDS011;46155;52.364;6.580;2023-05-10T07:26:33;63.37;;;38.37;;
60306;SDS011;46155;52.364;6.580;2023-05-10T07:28:59;59.70;;;40.33;;
60306;SDS011;46155;52.364;6.580;2023-05-10T07:31:24;54.10;;;39.80;;
60306;SDS011;46155;52.364;6.580;2023-05-10T07:33:49;58.93;;;38.97;;
60306;SDS011;46155;52.364;6.580;2023-05-10T07:36:15;65.23;;;40.53;;
60306;SDS011;46155;52.364;6.580;2023-05-10T07:38:40;64.33;;;41.50;;
60306;SDS011;46155;52.364;6.580;2023-05-10T07:41:05;63.43;;;38.83;;
60306;SDS011;46155;52.364;6.580;2023-05-10T07:43:31;63.40;;;40.30;;
60306;SDS011;46155;52.364;6.580;2023-05-10T07:45:56;69.30;;;39.33;;
60306;SDS011;46155;52.364;6.580;2023-05-10T07:48:22;64.63;;;40.87;;
60306;SDS011;46155;52.364;6.580;2023-05-10T07:50:47;61.77;;;40.23;;
60306;SDS011;46155;52.364;6.580;2023-05-10T07:53:13;67.73;;;40.67;;
60306;SDS011;46155;52.364;6.580;2023-05-10T07:55:38;60.33;;;41.07;;
60306;SDS011;46155;52.364;6.580;2023-05-10T07:58:03;64.17;;;41.13;;
60306;SDS011;46155;52.364;6.580;2023-05-10T08:00:29;60.33;;;42.00;;
60306;SDS011;46155;52.364;6.580;2023-05-10T08:02:54;61.40;;;41.23;;
60306;SDS011;46155;52.364;6.580;2023-05-10T08:05:19;59.07;;;38.17;;
60306;SDS011;46155;52.364;6.580;2023-05-10T08:07:45;69.83;;;39.97;;
60306;SDS011;46155;52.364;6.580;2023-05-10T08:10:10;56.17;;;39.67;;
60306;SDS011;46155;52.364;6.580;2023-05-10T08:12:36;55.20;;;38.87;;
60306;SDS011;46155;52.364;6.580;2023-05-10T08:15:01;61.10;;;39.77;;
60306;SDS011;46155;52.364;6.580;2023-05-10T08:17:27;59.50;;;36.67;;
60306;SDS011;46155;52.364;6.580;2023-05-10T08:19:52;56.00;;;35.87;;
60306;SDS011;46155;52.364;6.580;2023-05-10T08:22:17;53.93;;;36.87;;
60306;SDS011;46155;52.364;6.580;2023-05-10T08:24:43;50.33;;;35.17;;
60306;SDS011;46155;52.364;6.580;2023-05-10T08:27:08;52.20;;;34.77;;
60306;SDS011;46155;52.364;6.580;2023-05-10T08:29:33;50.60;;;35.20;;
60306;SDS011;46155;52.364;6.580;2023-05-10T08:31:59;45.27;;;32.53;;
60306;SDS011;46155;52.364;6.580;2023-05-10T08:34:25;41.83;;;34.80;;
60306;SDS011;46155;52.364;6.580;2023-05-10T08:36:51;49.37;;;32.63;;
60306;SDS011;46155;52.364;6.580;2023-05-10T08:39:16;40.97;;;31.97;;
60306;SDS011;46155;52.364;6.580;2023-05-10T08:41:43;45.33;;;33.10;;
60306;SDS011;46155;52.364;6.580;2023-05-10T08:44:09;51.00;;;33.60;;
60306;SDS011;46155;52.364;6.580;2023-05-10T08:46:35;42.33;;;31.27;;
60306;SDS011;46155;52.364;6.580;2023-05-10T08:49:04;41.03;;;30.93;;
60306;SDS011;46155;52.364;6.580;2023-05-10T08:51:33;42.37;;;31.50;;
60306;SDS011;46155;52.364;6.580;2023-05-10T08:54:02;41.57;;;29.33;;
60306;SDS011;46155;52.364;6.580;2023-05-10T08:56:29;37.07;;;30.53;;
60306;SDS011;46155;52.364;6.580;2023-05-10T08:58:54;46.50;;;32.33;;
60306;SDS011;46155;52.364;6.580;2023-05-10T09:01:20;37.47;;;29.70;;
60306;SDS011;46155;52.364;6.580;2023-05-10T09:03:46;38.60;;;30.40;;
60306;SDS011;46155;52.364;6.580;2023-05-10T09:06:13;42.37;;;30.47;;
60306;SDS011;46155;52.364;6.580;2023-05-10T09:08:38;36.67;;;31.10;;
60306;SDS011;46155;52.364;6.580;2023-05-10T09:11:06;31.70;;;28.50;;
60306;SDS011;46155;52.364;6.580;2023-05-10T09:13:33;31.83;;;28.17;;
60306;SDS011;46155;52.364;6.580;2023-05-10T09:16:00;30.17;;;26.67;;
60306;SDS011;46155;52.364;6.580;2023-05-10T09:18:25;30.00;;;26.73;;
60306;SDS011;46155;52.364;6.580;2023-05-10T09:20:51;30.73;;;27.20;;
60306;SDS011;46155;52.364;6.580;2023-05-10T09:23:16;29.80;;;26.70;;
60306;SDS011;46155;52.364;6.580;2023-05-10T09:25:42;31.17;;;26.27;;
60306;SDS011;46155;52.364;6.580;2023-05-10T09:28:08;32.10;;;27.90;;
60306;SDS011;46155;52.364;6.580;2023-05-10T09:30:34;34.23;;;27.37;;
60306;SDS011;46155;52.364;6.580;2023-05-10T09:33:01;36.40;;;29.57;;
60306;SDS011;46155;52.364;6.580;2023-05-10T09:35:27;35.70;;;28.50;;
60306;SDS011;46155;52.364;6.580;2023-05-10T09:37:54;35.63;;;29.23;;
60306;SDS011;46155;52.364;6.580;2023-05-10T09:40:22;33.93;;;30.17;;
60306;SDS011;46155;52.364;6.580;2023-05-10T09:42:57;34.17;;;29.60;;
60306;SDS011;46155;52.364;6.580;2023-05-10T09:45:24;32.17;;;28.00;;
60306;SDS011;46155;52.364;6.580;2023-05-10T09:47:51;32.77;;;28.43;;
60306;SDS011;46155;52.364;6.580;2023-05-10T09:50:16;37.03;;;28.70;;
60306;SDS011;46155;52.364;6.580;2023-05-10T09:52:52;30.43;;;27.20;;
60306;SDS011;46155;52.364;6.580;2023-05-10T09:58:02;31.90;;;26.23;;
60306;SDS011;46155;52.364;6.580;2023-05-10T10:00:27;32.63;;;27.70;;
60306;SDS011;46155;52.364;6.580;2023-05-10T10:02:57;29.17;;;25.73;;
60306;SDS011;46155;52.364;6.580;2023-05-10T10:05:33;34.87;;;26.90;;
60306;SDS011;46155;52.364;6.580;2023-05-10T10:08:01;25.10;;;22.53;;
60306;SDS011;46155;52.364;6.580;2023-05-10T10:10:29;27.17;;;24.27;;
60306;SDS011;46155;52.364;6.580;2023-05-10T10:12:56;28.50;;;22.83;;
60306;SDS011;46155;52.364;6.580;2023-05-10T10:15:21;24.40;;;21.87;;
60306;SDS011;46155;52.364;6.580;2023-05-10T10:17:48;21.20;;;19.10;;
60306;SDS011;46155;52.364;6.580;2023-05-10T10:20:14;24.20;;;21.30;;
60306;SDS011;46155;52.364;6.580;2023-05-10T10:22:40;25.87;;;20.57;;
60306;SDS011;46155;52.364;6.580;2023-05-10T10:25:05;22.87;;;20.60;;
60306;SDS011;46155;52.364;6.580;2023-05-10T10:35:38;24.13;;;21.70;;
60306;SDS011;46155;52.364;6.580;2023-05-10T10:38:04;24.00;;;20.93;;
60306;SDS011;46155;52.364;6.580;2023-05-10T10:40:33;21.33;;;19.33;;
60306;SDS011;46155;52.364;6.580;2023-05-10T10:48:50;21.07;;;18.87;;
60306;SDS011;46155;52.364;6.580;2023-05-10T10:51:36;18.50;;;16.53;;
60306;SDS011;46155;52.364;6.580;2023-05-10T10:54:08;19.37;;;15.43;;
60306;SDS011;46155;52.364;6.580;2023-05-10T10:56:35;18.37;;;16.53;;
60306;SDS011;46155;52.364;6.580;2023-05-10T10:59:00;16.07;;;14.43;;
60306;SDS011;46155;52.364;6.580;2023-05-10T11:01:26;21.77;;;15.53;;
60306;SDS011;46155;52.364;6.580;2023-05-10T11:06:30;17.20;;;15.50;;
60306;SDS011;46155;52.364;6.580;2023-05-10T11:08:57;23.27;;;14.83;;
60306;SDS011;46155;52.364;6.580;2023-05-10T11:11:23;16.97;;;15.50;;
60306;SDS011;46155;52.364;6.580;2023-05-10T11:13:48;19.40;;;16.53;;
60306;SDS011;46155;52.364;6.580;2023-05-10T11:18:56;15.77;;;14.17;;
60306;SDS011;46155;52.364;6.580;2023-05-10T11:21:29;16.80;;;15.20;;
60306;SDS011;46155;52.364;6.580;2023-05-10T11:23:56;17.60;;;16.03;;
60306;SDS011;46155;52.364;6.580;2023-05-10T11:26:23;16.27;;;14.63;;
60306;SDS011;46155;52.364;6.580;2023-05-10T11:28:51;18.73;;;16.97;;
60306;SDS011;46155;52.364;6.580;2023-05-10T11:31:19;17.40;;;15.63;;
60306;SDS011;46155;52.364;6.580;2023-05-10T11:36:10;15.63;;;14.23;;
60306;SDS011;46155;52.364;6.580;2023-05-10T11:38:39;18.13;;;16.47;;
60306;SDS011;46155;52.364;6.580;2023-05-10T11:41:05;17.80;;;15.97;;
60306;SDS011;46155;52.364;6.580;2023-05-10T11:43:30;15.53;;;13.20;;
60306;SDS011;46155;52.364;6.580;2023-05-10T11:45:55;15.13;;;13.83;;
60306;SDS011;46155;52.364;6.580;2023-05-10T11:48:21;15.77;;;14.17;;
60306;SDS011;46155;52.364;6.580;2023-05-10T11:50:48;16.10;;;14.70;;
60306;SDS011;46155;52.364;6.580;2023-05-10T11:53:14;16.10;;;13.87;;
60306;SDS011;46155;52.364;6.580;2023-05-10T11:55:40;15.50;;;13.93;;
60306;SDS011;46155;52.364;6.580;2023-05-10T11:58:05;17.03;;;15.43;;
60306;SDS011;46155;52.364;6.580;2023-05-10T12:00:30;15.83;;;14.53;;
60306;SDS011;46155;52.364;6.580;2023-05-10T12:02:57;16.03;;;14.70;;
60306;SDS011;46155;52.364;6.580;2023-05-10T12:05:23;19.10;;;15.77;;
60306;SDS011;46155;52.364;6.580;2023-05-10T12:07:48;18.17;;;16.37;;
60306;SDS011;46155;52.364;6.580;2023-05-10T12:10:14;21.37;;;15.90;;
60306;SDS011;46155;52.364;6.580;2023-05-10T12:12:43;16.17;;;14.80;;
60306;SDS011;46155;52.364;6.580;2023-05-10T12:15:10;20.70;;;17.60;;
60306;SDS011;46155;52.364;6.580;2023-05-10T12:17:37;16.90;;;15.40;;
60306;SDS011;46155;52.364;6.580;2023-05-10T12:20:14;19.03;;;16.70;;
60306;SDS011;46155;52.364;6.580;2023-05-10T12:22:50;16.30;;;14.57;;
60306;SDS011;46155;52.364;6.580;2023-05-10T12:25:20;14.00;;;12.70;;
60306;SDS011;46155;52.364;6.580;2023-05-10T12:27:51;14.27;;;12.97;;
60306;SDS011;46155;52.364;6.580;2023-05-10T12:30:24;13.70;;;12.30;;
60306;SDS011;46155;52.364;6.580;2023-05-10T12:32:51;23.70;;;13.77;;
60306;SDS011;46155;52.364;6.580;2023-05-10T12:35:17;20.17;;;13.03;;
60306;SDS011;46155;52.364;6.580;2023-05-10T12:37:46;19.47;;;13.57;;
60306;SDS011;46155;52.364;6.580;2023-05-10T12:40:12;13.47;;;12.07;;
60306;SDS011;46155;52.364;6.580;2023-05-10T12:42:38;14.53;;;13.33;;
60306;SDS011;46155;52.364;6.580;2023-05-10T12:45:05;13.57;;;12.17;;
60306;SDS011;46155;52.364;6.580;2023-05-10T12:47:31;14.77;;;13.40;;
60306;SDS011;46155;52.364;6.580;2023-05-10T12:49:57;17.20;;;14.77;;
60306;SDS011;46155;52.364;6.580;2023-05-10T12:52:23;13.57;;;12.47;;
60306;SDS011;46155;52.364;6.580;2023-05-10T12:54:49;12.20;;;11.03;;
60306;SDS011;46155;52.364;6.580;2023-05-10T12:57:15;12.37;;;11.20;;
60306;SDS011;46155;52.364;6.580;2023-05-10T12:59:40;13.87;;;11.83;;
60306;SDS011;46155;52.364;6.580;2023-05-10T13:02:06;14.00;;;12.70;;
60306;SDS011;46155;52.364;6.580;2023-05-10T13:04:31;13.43;;;12.23;;
60306;SDS011;46155;52.364;6.580;2023-05-10T13:06:56;12.70;;;11.60;;
60306;SDS011;46155;52.364;6.580;2023-05-10T13:09:24;14.50;;;11.10;;
60306;SDS011;46155;52.364;6.580;2023-05-10T13:11:50;14.57;;;11.83;;
60306;SDS011;46155;52.364;6.580;2023-05-10T13:14:16;13.10;;;11.90;;
60306;SDS011;46155;52.364;6.580;2023-05-10T13:16:41;12.00;;;11.00;;
60306;SDS011;46155;52.364;6.580;2023-05-10T13:19:06;11.60;;;10.40;;
60306;SDS011;46155;52.364;6.580;2023-05-10T13:21:32;11.57;;;10.57;;
60306;SDS011;46155;52.364;6.580;2023-05-10T13:23:57;12.43;;;11.20;;
60306;SDS011;46155;52.364;6.580;2023-05-10T13:26:23;12.57;;;11.20;;
60306;SDS011;46155;52.364;6.580;2023-05-10T13:28:48;17.00;;;13.30;;
60306;SDS011;46155;52.364;6.580;2023-05-10T13:31:14;13.23;;;11.10;;
60306;SDS011;46155;52.364;6.580;2023-05-10T13:33:39;14.00;;;12.00;;
60306;SDS011;46155;52.364;6.580;2023-05-10T13:36:05;13.10;;;10.67;;
60306;SDS011;46155;52.364;6.580;2023-05-10T13:38:31;12.60;;;11.50;;
60306;SDS011;46155;52.364;6.580;2023-05-10T13:40:56;12.30;;;11.03;;
60306;SDS011;46155;52.364;6.580;2023-05-10T13:43:21;16.40;;;12.60;;
60306;SDS011;46155;52.364;6.580;2023-05-10T13:45:47;14.13;;;12.70;;
60306;SDS011;46155;52.364;6.580;2023-05-10T13:48:12;17.07;;;12.73;;
60306;SDS011;46155;52.364;6.580;2023-05-10T13:50:37;14.03;;;12.63;;
60306;SDS011;46155;52.364;6.580;2023-05-10T13:53:03;14.00;;;12.70;;
60306;SDS011;46155;52.364;6.580;2023-05-10T13:55:28;15.57;;;13.37;;
60306;SDS011;46155;52.364;6.580;2023-05-10T13:57:54;15.87;;;14.10;;
60306;SDS011;46155;52.364;6.580;2023-05-10T14:00:19;14.77;;;12.67;;
60306;SDS011;46155;52.364;6.580;2023-05-10T14:02:44;14.97;;;13.33;;
60306;SDS011;46155;52.364;6.580;2023-05-10T14:05:10;16.03;;;14.00;;
60306;SDS011;46155;52.364;6.580;2023-05-10T14:07:35;14.53;;;13.13;;
60306;SDS011;46155;52.364;6.580;2023-05-10T14:10:00;13.70;;;12.37;;
60306;SDS011;46155;52.364;6.580;2023-05-10T14:12:26;14.53;;;13.03;;
60306;SDS011;46155;52.364;6.580;2023-05-10T14:14:51;14.73;;;13.20;;
60306;SDS011;46155;52.364;6.580;2023-05-10T14:17:17;16.03;;;14.33;;
60306;SDS011;46155;52.364;6.580;2023-05-10T14:19:42;14.43;;;13.03;;
60306;SDS011;46155;52.364;6.580;2023-05-10T14:22:08;19.40;;;14.43;;
60306;SDS011;46155;52.364;6.580;2023-05-10T14:24:33;15.13;;;13.40;;
60306;SDS011;46155;52.364;6.580;2023-05-10T14:26:58;20.87;;;14.90;;
60306;SDS011;46155;52.364;6.580;2023-05-10T14:29:25;14.93;;;13.27;;
60306;SDS011;46155;52.364;6.580;2023-05-10T14:31:50;16.07;;;14.20;;
60306;SDS011;46155;52.364;6.580;2023-05-10T14:34:15;16.30;;;14.23;;
60306;SDS011;46155;52.364;6.580;2023-05-10T14:36:41;17.03;;;14.70;;
60306;SDS011;46155;52.364;6.580;2023-05-10T14:39:06;15.47;;;13.87;;
60306;SDS011;46155;52.364;6.580;2023-05-10T14:41:31;18.10;;;14.00;;
60306;SDS011;46155;52.364;6.580;2023-05-10T14:43:57;16.07;;;14.37;;
60306;SDS011;46155;52.364;6.580;2023-05-10T14:46:23;15.43;;;13.93;;
60306;SDS011;46155;52.364;6.580;2023-05-10T14:48:48;15.23;;;13.20;;
60306;SDS011;46155;52.364;6.580;2023-05-10T14:51:13;15.07;;;13.47;;
60306;SDS011;46155;52.364;6.580;2023-05-10T14:53:38;14.20;;;11.97;;
60306;SDS011;46155;52.364;6.580;2023-05-10T14:56:04;13.53;;;12.37;;
60306;SDS011;46155;52.364;6.580;2023-05-10T14:58:30;14.47;;;12.10;;
60306;SDS011;46155;52.364;6.580;2023-05-10T15:00:56;14.33;;;12.07;;
60306;SDS011;46155;52.364;6.580;2023-05-10T15:03:21;22.03;;;13.13;;
60306;SDS011;46155;52.364;6.580;2023-05-10T15:05:47;14.37;;;11.80;;
60306;SDS011;46155;52.364;6.580;2023-05-10T15:08:12;20.70;;;12.83;;
60306;SDS011;46155;52.364;6.580;2023-05-10T15:10:38;15.13;;;13.17;;
60306;SDS011;46155;52.364;6.580;2023-05-10T15:13:04;16.97;;;13.70;;
60306;SDS011;46155;52.364;6.580;2023-05-10T15:15:29;16.77;;;13.20;;
60306;SDS011;46155;52.364;6.580;2023-05-10T15:17:55;19.37;;;13.00;;
60306;SDS011;46155;52.364;6.580;2023-05-10T15:20:20;17.47;;;13.47;;
60306;SDS011;46155;52.364;6.580;2023-05-10T15:22:46;14.93;;;12.83;;
60306;SDS011;46155;52.364;6.580;2023-05-10T15:25:11;15.63;;;13.17;;
60306;SDS011;46155;52.364;6.580;2023-05-10T15:27:37;17.93;;;12.40;;
60306;SDS011;46155;52.364;6.580;2023-05-10T15:30:03;13.37;;;11.97;;
60306;SDS011;46155;52.364;6.580;2023-05-10T15:32:29;14.53;;;13.10;;
60306;SDS011;46155;52.364;6.580;2023-05-10T15:34:54;20.67;;;12.73;;
60306;SDS011;46155;52.364;6.580;2023-05-10T15:37:20;15.60;;;13.73;;
60306;SDS011;46155;52.364;6.580;2023-05-10T15:39:46;14.27;;;12.77;;
60306;SDS011;46155;52.364;6.580;2023-05-10T15:42:11;16.73;;;14.13;;
60306;SDS011;46155;52.364;6.580;2023-05-10T15:44:36;20.83;;;13.60;;
60306;SDS011;46155;52.364;6.580;2023-05-10T15:47:03;14.23;;;12.83;;
60306;SDS011;46155;52.364;6.580;2023-05-10T15:49:29;19.17;;;12.80;;
60306;SDS011;46155;52.364;6.580;2023-05-10T15:51:54;14.90;;;12.23;;
60306;SDS011;46155;52.364;6.580;2023-05-10T15:54:20;19.53;;;12.43;;
60306;SDS011;46155;52.364;6.580;2023-05-10T15:56:45;17.87;;;12.70;;
60306;SDS011;46155;52.364;6.580;2023-05-10T15:59:11;17.37;;;14.13;;
60306;SDS011;46155;52.364;6.580;2023-05-10T16:01:36;15.70;;;13.20;;
60306;SDS011;46155;52.364;6.580;2023-05-10T16:04:01;17.67;;;13.10;;
60306;SDS011;46155;52.364;6.580;2023-05-10T16:06:27;15.67;;;12.90;;
60306;SDS011;46155;52.364;6.580;2023-05-10T16:08:52;16.60;;;13.33;;
60306;SDS011;46155;52.364;6.580;2023-05-10T16:11:17;16.30;;;14.00;;
60306;SDS011;46155;52.364;6.580;2023-05-10T16:13:43;16.97;;;13.27;;
60306;SDS011;46155;52.364;6.580;2023-05-10T16:16:08;18.33;;;12.57;;
60306;SDS011;46155;52.364;6.580;2023-05-10T16:18:34;12.27;;;11.07;;
60306;SDS011;46155;52.364;6.580;2023-05-10T16:20:59;14.60;;;11.40;;
60306;SDS011;46155;52.364;6.580;2023-05-10T16:23:25;17.10;;;12.40;;
60306;SDS011;46155;52.364;6.580;2023-05-10T16:25:52;21.03;;;14.20;;
60306;SDS011;46155;52.364;6.580;2023-05-10T16:28:17;14.27;;;12.77;;
60306;SDS011;46155;52.364;6.580;2023-05-10T16:30:45;18.53;;;14.23;;
60306;SDS011;46155;52.364;6.580;2023-05-10T16:33:11;18.50;;;13.17;;
60306;SDS011;46155;52.364;6.580;2023-05-10T16:35:37;17.97;;;13.17;;
60306;SDS011;46155;52.364;6.580;2023-05-10T16:38:02;18.17;;;14.37;;
60306;SDS011;46155;52.364;6.580;2023-05-10T16:40:28;19.33;;;14.30;;
60306;SDS011;46155;52.364;6.580;2023-05-10T16:42:53;24.30;;;14.80;;
60306;SDS011;46155;52.364;6.580;2023-05-10T16:45:18;16.50;;;13.10;;
60306;SDS011;46155;52.364;6.580;2023-05-10T16:47:44;16.17;;;13.83;;
60306;SDS011;46155;52.364;6.580;2023-05-10T16:50:09;21.30;;;13.50;;
60306;SDS011;46155;52.364;6.580;2023-05-10T16:52:35;17.87;;;13.10;;
60306;SDS011;46155;52.364;6.580;2023-05-10T16:55:01;17.37;;;14.43;;
60306;SDS011;46155;52.364;6.580;2023-05-10T16:57:28;19.77;;;14.30;;
60306;SDS011;46155;52.364;6.580;2023-05-10T16:59:54;17.17;;;14.07;;
60306;SDS011;46155;52.364;6.580;2023-05-10T17:02:20;12.93;;;11.63;;
60306;SDS011;46155;52.364;6.580;2023-05-10T17:04:48;17.77;;;14.60;;
60306;SDS011;46155;52.364;6.580;2023-05-10T17:07:14;16.63;;;12.43;;
60306;SDS011;46155;52.364;6.580;2023-05-10T17:09:43;15.13;;;13.30;;
60306;SDS011;46155;52.364;6.580;2023-05-10T17:12:08;16.40;;;12.93;;
60306;SDS011;46155;52.364;6.580;2023-05-10T17:14:35;16.47;;;12.70;;
60306;SDS011;46155;52.364;6.580;2023-05-10T17:17:02;16.03;;;13.23;;
60306;SDS011;46155;52.364;6.580;2023-05-10T17:19:27;15.20;;;12.27;;
60306;SDS011;46155;52.364;6.580;2023-05-10T17:21:52;15.53;;;13.07;;
60306;SDS011;46155;52.364;6.580;2023-05-10T17:24:18;18.53;;;13.87;;
60306;SDS011;46155;52.364;6.580;2023-05-10T17:26:43;20.07;;;13.97;;
60306;SDS011;46155;52.364;6.580;2023-05-10T17:29:09;14.40;;;12.83;;
60306;SDS011;46155;52.364;6.580;2023-05-10T17:31:34;17.97;;;13.80;;
60306;SDS011;46155;52.364;6.580;2023-05-10T17:34:00;16.17;;;13.97;;
60306;SDS011;46155;52.364;6.580;2023-05-10T17:36:26;19.87;;;15.87;;
60306;SDS011;46155;52.364;6.580;2023-05-10T17:38:52;18.87;;;15.67;;
60306;SDS011;46155;52.364;6.580;2023-05-10T17:41:18;18.73;;;15.53;;